Terminal Aerodrome Forecast
Issued by NWS Greer, SC

Home | Current Version | Previous Version | Text Only | Print | Product List | Glossary On
Versions: 1 2 3 4 5 6 7 8 9 10 11 12 13 14 15 16 17 18 19 20 21 22 23 24
000
FTUS42 KGSP 061722
TAFAVL
TAF
KAVL 061722Z 0618/0718 16006KT P6SM FEW250
     FM070300 34003KT P6SM FEW250
     FM071000 00000KT 4SM BR FEW250
     FM071200 00000KT P6SM FEW250=

USA.gov is the U.S. government's official web portal to all federal, state and local government web resources and services.